sensor_id;sensor_type;location;lat;lon;timestamp;pressure;altitude;pressure_sealevel;temperature;humidity
20696;BME280;10507;52.754;13.040;2023-02-25T00:00:46;98876.81;;;2.73;100.00
20696;BME280;10507;52.754;13.040;2023-02-25T00:03:15;98894.13;;;2.78;100.00
20696;BME280;10507;52.754;13.040;2023-02-25T00:05:45;98903.59;;;2.82;100.00
20696;BME280;10507;52.754;13.040;2023-02-25T00:08:13;98908.63;;;2.87;100.00
20696;BME280;10507;52.754;13.040;2023-02-25T00:10:41;98912.00;;;2.90;100.00
20696;BME280;10507;52.754;13.040;2023-02-25T00:13:09;98906.56;;;2.94;100.00
20696;BME280;10507;52.754;13.040;2023-02-25T00:15:44;98905.50;;;2.98;100.00
20696;BME280;10507;52.754;13.040;2023-02-25T00:18:11;98904.38;;;3.03;100.00
20696;BME280;10507;52.754;13.040;2023-02-25T00:20:41;98908.72;;;3.04;100.00
20696;BME280;10507;52.754;13.040;2023-02-25T00:23:09;98899.88;;;3.05;100.00
20696;BME280;10507;52.754;13.040;2023-02-25T00:25:37;98893.00;;;3.03;100.00
20696;BME280;10507;52.754;13.040;2023-02-25T00:28:04;98867.53;;;3.02;100.00
20696;BME280;10507;52.754;13.040;2023-02-25T00:30:32;98883.97;;;3.07;100.00
20696;BME280;10507;52.754;13.040;2023-02-25T00:33:00;98852.44;;;3.05;100.00
20696;BME280;10507;52.754;13.040;2023-02-25T00:35:28;98836.91;;;2.99;100.00
20696;BME280;10507;52.754;13.040;2023-02-25T00:37:57;98838.53;;;3.02;100.00
20696;BME280;10507;52.754;13.040;2023-02-25T00:40:41;98833.25;;;3.02;100.00
20696;BME280;10507;52.754;13.040;2023-02-25T00:43:09;98827.16;;;3.01;100.00
20696;BME280;10507;52.754;13.040;2023-02-25T00:45:37;98826.34;;;2.99;100.00
20696;BME280;10507;52.754;13.040;2023-02-25T00:48:06;98803.88;;;2.92;100.00
20696;BME280;10507;52.754;13.040;2023-02-25T00:50:34;98830.91;;;2.96;100.00
20696;BME280;10507;52.754;13.040;2023-02-25T00:53:06;98841.41;;;2.97;100.00
20696;BME280;10507;52.754;13.040;2023-02-25T00:55:34;98808.28;;;2.91;100.00
20696;BME280;10507;52.754;13.040;2023-02-25T00:58:02;98843.03;;;3.00;100.00
20696;BME280;10507;52.754;13.040;2023-02-25T01:00:30;98822.16;;;2.95;100.00
20696;BME280;10507;52.754;13.040;2023-02-25T01:03:15;98856.22;;;3.00;100.00
20696;BME280;10507;52.754;13.040;2023-02-25T01:05:43;98818.53;;;2.98;100.00
20696;BME280;10507;52.754;13.040;2023-02-25T01:08:17;98844.59;;;3.04;100.00
20696;BME280;10507;52.754;13.040;2023-02-25T01:10:45;98820.09;;;3.02;100.00
20696;BME280;10507;52.754;13.040;2023-02-25T01:13:14;98844.38;;;3.08;100.00
20696;BME280;10507;52.754;13.040;2023-02-25T01:15:42;98842.44;;;3.12;100.00
20696;BME280;10507;52.754;13.040;2023-02-25T01:18:10;98833.59;;;3.13;100.00
20696;BME280;10507;52.754;13.040;2023-02-25T01:20:38;98851.81;;;3.18;100.00
20696;BME280;10507;52.754;13.040;2023-02-25T01:23:07;98871.00;;;3.21;100.00
20696;BME280;10507;52.754;13.040;2023-02-25T01:25:39;98874.25;;;3.26;100.00
20696;BME280;10507;52.754;13.040;2023-02-25T01:28:07;98890.88;;;3.28;100.00
20696;BME280;10507;52.754;13.040;2023-02-25T01:30:35;98875.81;;;3.30;100.00
20696;BME280;10507;52.754;13.040;2023-02-25T01:33:04;98875.75;;;3.32;100.00
20696;BME280;10507;52.754;13.040;2023-02-25T01:35:34;98861.84;;;3.28;100.00
20696;BME280;10507;52.754;13.040;2023-02-25T01:38:02;98875.66;;;3.33;100.00
20696;BME280;10507;52.754;13.040;2023-02-25T01:40:30;98888.72;;;3.37;100.00
20696;BME280;10507;52.754;13.040;2023-02-25T01:42:59;98910.59;;;3.39;100.00
20696;BME280;10507;52.754;13.040;2023-02-25T01:45:30;98887.78;;;3.38;100.00
20696;BME280;10507;52.754;13.040;2023-02-25T01:48:09;98883.44;;;3.37;100.00
20696;BME280;10507;52.754;13.040;2023-02-25T01:50:45;98882.34;;;3.41;100.00
20696;BME280;10507;52.754;13.040;2023-02-25T01:53:17;98858.75;;;3.38;100.00
20696;BME280;10507;52.754;13.040;2023-02-25T01:55:48;98827.28;;;3.35;100.00
20696;BME280;10507;52.754;13.040;2023-02-25T01:58:18;98810.56;;;3.34;100.00
20696;BME280;10507;52.754;13.040;2023-02-25T02:00:47;98809.66;;;3.35;100.00
20696;BME280;10507;52.754;13.040;2023-02-25T02:03:14;98797.31;;;3.36;100.00
20696;BME280;10507;52.754;13.040;2023-02-25T02:05:53;98789.34;;;3.37;100.00
20696;BME280;10507;52.754;13.040;2023-02-25T02:08:23;98801.50;;;3.40;100.00
20696;BME280;10507;52.754;13.040;2023-02-25T02:10:52;98786.63;;;3.39;100.00
20696;BME280;10507;52.754;13.040;2023-02-25T02:13:22;98779.63;;;3.38;100.00
20696;BME280;10507;52.754;13.040;2023-02-25T02:16:01;98768.31;;;3.36;100.00
20696;BME280;10507;52.754;13.040;2023-02-25T02:18:33;98744.88;;;3.29;100.00
20696;BME280;10507;52.754;13.040;2023-02-25T02:21:12;98779.03;;;3.32;100.00
20696;BME280;10507;52.754;13.040;2023-02-25T02:24:06;98766.84;;;3.30;100.00
20696;BME280;10507;52.754;13.040;2023-02-25T02:26:48;98783.69;;;3.27;100.00
20696;BME280;10507;52.754;13.040;2023-02-25T02:32:45;98785.53;;;3.25;100.00
20696;BME280;10507;52.754;13.040;2023-02-25T02:35:19;98776.75;;;3.25;100.00
20696;BME280;10507;52.754;13.040;2023-02-25T02:37:57;98780.94;;;3.29;100.00
20696;BME280;10507;52.754;13.040;2023-02-25T02:40:39;98787.06;;;3.29;100.00
20696;BME280;10507;52.754;13.040;2023-02-25T02:43:19;98775.00;;;3.25;100.00
20696;BME280;10507;52.754;13.040;2023-02-25T02:45:51;98772.34;;;3.25;100.00
20696;BME280;10507;52.754;13.040;2023-02-25T02:48:29;98779.31;;;3.26;100.00
20696;BME280;10507;52.754;13.040;2023-02-25T02:51:06;98791.59;;;3.27;100.00
20696;BME280;10507;52.754;13.040;2023-02-25T02:53:38;98791.72;;;3.24;100.00
20696;BME280;10507;52.754;13.040;2023-02-25T02:56:16;98786.50;;;3.23;100.00
20696;BME280;10507;52.754;13.040;2023-02-25T02:58:47;98773.03;;;3.11;100.00
20696;BME280;10507;52.754;13.040;2023-02-25T03:01:22;98816.94;;;3.12;100.00
20696;BME280;10507;52.754;13.040;2023-02-25T03:03:57;98814.34;;;3.11;100.00
20696;BME280;10507;52.754;13.040;2023-02-25T03:06:30;98847.84;;;3.09;100.00
20696;BME280;10507;52.754;13.040;2023-02-25T03:09:03;98848.84;;;3.06;100.00
20696;BME280;10507;52.754;13.040;2023-02-25T03:11:32;98861.25;;;3.04;100.00
20696;BME280;10507;52.754;13.040;2023-02-25T03:14:00;98867.38;;;3.05;100.00
20696;BME280;10507;52.754;13.040;2023-02-25T03:16:32;98878.94;;;3.02;100.00
20696;BME280;10507;52.754;13.040;2023-02-25T03:19:07;98872.97;;;2.99;100.00
20696;BME280;10507;52.754;13.040;2023-02-25T03:21:40;98878.53;;;2.92;100.00
20696;BME280;10507;52.754;13.040;2023-02-25T03:24:12;98897.91;;;2.91;100.00
20696;BME280;10507;52.754;13.040;2023-02-25T03:26:42;98904.88;;;2.92;100.00
20696;BME280;10507;52.754;13.040;2023-02-25T03:29:15;98921.41;;;2.96;100.00
20696;BME280;10507;52.754;13.040;2023-02-25T03:31:47;98907.72;;;2.88;100.00
20696;BME280;10507;52.754;13.040;2023-02-25T03:34:20;98930.50;;;2.89;100.00
20696;BME280;10507;52.754;13.040;2023-02-25T03:36:53;98934.03;;;2.89;100.00
20696;BME280;10507;52.754;13.040;2023-02-25T03:39:26;98914.13;;;2.82;100.00
20696;BME280;10507;52.754;13.040;2023-02-25T03:41:57;98935.88;;;2.87;100.00
20696;BME280;10507;52.754;13.040;2023-02-25T03:44:30;98941.94;;;2.89;100.00
20696;BME280;10507;52.754;13.040;2023-02-25T03:47:02;98917.50;;;2.86;100.00
20696;BME280;10507;52.754;13.040;2023-02-25T03:49:34;98935.09;;;2.85;100.00
20696;BME280;10507;52.754;13.040;2023-02-25T03:52:10;98917.66;;;2.83;100.00
20696;BME280;10507;52.754;13.040;2023-02-25T03:54:39;98938.78;;;2.81;100.00
20696;BME280;10507;52.754;13.040;2023-02-25T03:57:07;98938.94;;;2.78;100.00
20696;BME280;10507;52.754;13.040;2023-02-25T03:59:35;98958.34;;;2.76;100.00
20696;BME280;10507;52.754;13.040;2023-02-25T04:02:03;98969.88;;;2.73;100.00
20696;BME280;10507;52.754;13.040;2023-02-25T04:04:33;98977.78;;;2.73;100.00
20696;BME280;10507;52.754;13.040;2023-02-25T04:07:01;99007.50;;;2.77;100.00
20696;BME280;10507;52.754;13.040;2023-02-25T04:09:28;99007.66;;;2.74;100.00
20696;BME280;10507;52.754;13.040;2023-02-25T04:11:56;99020.09;;;2.70;100.00
20696;BME280;10507;52.754;13.040;2023-02-25T04:14:24;99040.94;;;2.76;100.00
20696;BME280;10507;52.754;13.040;2023-02-25T04:16:52;99044.34;;;2.78;100.00
20696;BME280;10507;52.754;13.040;2023-02-25T04:19:20;99028.91;;;2.69;100.00
20696;BME280;10507;52.754;13.040;2023-02-25T04:21:49;99037.69;;;2.69;100.00
20696;BME280;10507;52.754;13.040;2023-02-25T04:24:17;99049.03;;;2.72;100.00
20696;BME280;10507;52.754;13.040;2023-02-25T04:26:44;99040.41;;;2.68;100.00
20696;BME280;10507;52.754;13.040;2023-02-25T04:29:12;99063.06;;;2.72;100.00
20696;BME280;10507;52.754;13.040;2023-02-25T04:31:40;99065.44;;;2.78;100.00
20696;BME280;10507;52.754;13.040;2023-02-25T04:34:08;99061.22;;;2.74;100.00
20696;BME280;10507;52.754;13.040;2023-02-25T04:36:36;99012.41;;;2.65;100.00
20696;BME280;10507;52.754;13.040;2023-02-25T04:39:05;99029.06;;;2.66;100.00
20696;BME280;10507;52.754;13.040;2023-02-25T04:41:34;99030.59;;;2.72;100.00
20696;BME280;10507;52.754;13.040;2023-02-25T04:44:04;99027.06;;;2.71;100.00
20696;BME280;10507;52.754;13.040;2023-02-25T04:46:34;99011.25;;;2.71;100.00
20696;BME280;10507;52.754;13.040;2023-02-25T04:49:02;99007.06;;;2.67;100.00
20696;BME280;10507;52.754;13.040;2023-02-25T04:51:32;98990.75;;;2.59;100.00
20696;BME280;10507;52.754;13.040;2023-02-25T04:54:00;99028.06;;;2.68;100.00
20696;BME280;10507;52.754;13.040;2023-02-25T04:56:29;99016.69;;;2.68;100.00
20696;BME280;10507;52.754;13.040;2023-02-25T04:58:57;98994.03;;;2.64;100.00
20696;BME280;10507;52.754;13.040;2023-02-25T05:01:25;98989.53;;;2.66;100.00
20696;BME280;10507;52.754;13.040;2023-02-25T05:03:53;99005.50;;;2.63;100.00
20696;BME280;10507;52.754;13.040;2023-02-25T05:06:22;99011.66;;;2.62;100.00
20696;BME280;10507;52.754;13.040;2023-02-25T05:08:51;99013.50;;;2.60;100.00
20696;BME280;10507;52.754;13.040;2023-02-25T05:11:19;99010.19;;;2.56;100.00
20696;BME280;10507;52.754;13.040;2023-02-25T05:13:49;98997.00;;;2.56;100.00
20696;BME280;10507;52.754;13.040;2023-02-25T05:16:18;99023.16;;;2.61;100.00
20696;BME280;10507;52.754;13.040;2023-02-25T05:18:46;99021.41;;;2.60;100.00
20696;BME280;10507;52.754;13.040;2023-02-25T05:21:16;99031.84;;;2.63;100.00
20696;BME280;10507;52.754;13.040;2023-02-25T05:23:47;99002.88;;;2.63;100.00
20696;BME280;10507;52.754;13.040;2023-02-25T05:26:16;99001.06;;;2.63;100.00
20696;BME280;10507;52.754;13.040;2023-02-25T05:28:51;98976.00;;;2.55;100.00
20696;BME280;10507;52.754;13.040;2023-02-25T05:31:19;98976.78;;;2.57;100.00
20696;BME280;10507;52.754;13.040;2023-02-25T05:33:47;98997.72;;;2.60;100.00
20696;BME280;10507;52.754;13.040;2023-02-25T05:36:15;98985.47;;;2.59;100.00
20696;BME280;10507;52.754;13.040;2023-02-25T05:38:44;98999.69;;;2.55;100.00
20696;BME280;10507;52.754;13.040;2023-02-25T05:41:12;98997.47;;;2.45;100.00
20696;BME280;10507;52.754;13.040;2023-02-25T05:43:41;99002.09;;;2.40;100.00
20696;BME280;10507;52.754;13.040;2023-02-25T05:46:12;99038.97;;;2.40;100.00
20696;BME280;10507;52.754;13.040;2023-02-25T05:48:42;99024.41;;;2.32;100.00
20696;BME280;10507;52.754;13.040;2023-02-25T05:51:14;99036.19;;;2.23;100.00
20696;BME280;10507;52.754;13.040;2023-02-25T05:53:42;99033.13;;;2.12;100.00
20696;BME280;10507;52.754;13.040;2023-02-25T05:56:13;99058.66;;;2.10;100.00
20696;BME280;10507;52.754;13.040;2023-02-25T05:58:41;99096.19;;;2.15;100.00
20696;BME280;10507;52.754;13.040;2023-02-25T06:01:12;99104.28;;;2.10;100.00
20696;BME280;10507;52.754;13.040;2023-02-25T06:03:41;99143.72;;;2.12;100.00
20696;BME280;10507;52.754;13.040;2023-02-25T06:06:11;99138.56;;;2.08;100.00
20696;BME280;10507;52.754;13.040;2023-02-25T06:08:41;99147.50;;;2.04;100.00
20696;BME280;10507;52.754;13.040;2023-02-25T06:11:11;99152.78;;;2.04;100.00
20696;BME280;10507;52.754;13.040;2023-02-25T06:13:43;99178.38;;;1.99;100.00
20696;BME280;10507;52.754;13.040;2023-02-25T06:16:14;99185.47;;;1.97;100.00
20696;BME280;10507;52.754;13.040;2023-02-25T06:18:43;99226.56;;;2.01;100.00
20696;BME280;10507;52.754;13.040;2023-02-25T06:21:12;99227.53;;;1.99;100.00
20696;BME280;10507;52.754;13.040;2023-02-25T06:23:41;99253.03;;;1.98;100.00
20696;BME280;10507;52.754;13.040;2023-02-25T06:26:11;99244.31;;;1.96;100.00
20696;BME280;10507;52.754;13.040;2023-02-25T06:28:40;99260.06;;;1.98;100.00
20696;BME280;10507;52.754;13.040;2023-02-25T06:31:10;99286.22;;;2.02;100.00
20696;BME280;10507;52.754;13.040;2023-02-25T06:33:40;99269.66;;;1.99;100.00
20696;BME280;10507;52.754;13.040;2023-02-25T06:36:09;99273.16;;;1.99;100.00
20696;BME280;10507;52.754;13.040;2023-02-25T06:38:37;99267.19;;;1.94;100.00
20696;BME280;10507;52.754;13.040;2023-02-25T06:41:09;99317.78;;;2.02;100.00
20696;BME280;10507;52.754;13.040;2023-02-25T06:43:37;99280.19;;;1.99;100.00
20696;BME280;10507;52.754;13.040;2023-02-25T06:46:06;99322.13;;;2.03;100.00
20696;BME280;10507;52.754;13.040;2023-02-25T06:48:35;99328.97;;;2.09;100.00
20696;BME280;10507;52.754;13.040;2023-02-25T06:51:05;99342.13;;;2.09;100.00
20696;BME280;10507;52.754;13.040;2023-02-25T06:53:35;99350.75;;;2.13;100.00
20696;BME280;10507;52.754;13.040;2023-02-25T06:56:03;99331.66;;;2.07;100.00
20696;BME280;10507;52.754;13.040;2023-02-25T06:58:31;99375.25;;;2.15;100.00
20696;BME280;10507;52.754;13.040;2023-02-25T07:00:59;99324.75;;;2.03;100.00
20696;BME280;10507;52.754;13.040;2023-02-25T07:03:27;99341.38;;;2.05;100.00
20696;BME280;10507;52.754;13.040;2023-02-25T07:05:55;99315.22;;;2.01;100.00
20696;BME280;10507;52.754;13.040;2023-02-25T07:08:24;99327.69;;;1.96;100.00
20696;BME280;10507;52.754;13.040;2023-02-25T07:10:54;99370.44;;;2.02;100.00
20696;BME280;10507;52.754;13.040;2023-02-25T07:13:22;99375.75;;;2.01;100.00
20696;BME280;10507;52.754;13.040;2023-02-25T07:15:50;99361.75;;;2.00;100.00
20696;BME280;10507;52.754;13.040;2023-02-25T07:18:17;99384.28;;;2.07;100.00
20696;BME280;10507;52.754;13.040;2023-02-25T07:20:45;99372.88;;;2.08;100.00
20696;BME280;10507;52.754;13.040;2023-02-25T07:23:13;99376.34;;;2.09;100.00
20696;BME280;10507;52.754;13.040;2023-02-25T07:25:42;99379.50;;;2.19;100.00
20696;BME280;10507;52.754;13.040;2023-02-25T07:28:11;99390.63;;;2.27;100.00
20696;BME280;10507;52.754;13.040;2023-02-25T07:30:38;99383.63;;;2.26;100.00
20696;BME280;10507;52.754;13.040;2023-02-25T07:33:06;99392.25;;;2.31;100.00
20696;BME280;10507;52.754;13.040;2023-02-25T07:35:34;99357.28;;;2.26;100.00
20696;BME280;10507;52.754;13.040;2023-02-25T07:38:02;99341.75;;;2.20;100.00
20696;BME280;10507;52.754;13.040;2023-02-25T07:40:30;99310.75;;;2.03;100.00
20696;BME280;10507;52.754;13.040;2023-02-25T07:42:59;99333.47;;;2.05;100.00
20696;BME280;10507;52.754;13.040;2023-02-25T07:45:28;99324.88;;;2.00;100.00
20696;BME280;10507;52.754;13.040;2023-02-25T07:47:56;99338.84;;;2.02;100.00
20696;BME280;10507;52.754;13.040;2023-02-25T07:50:24;99399.03;;;2.13;100.00
20696;BME280;10507;52.754;13.040;2023-02-25T07:52:52;99359.59;;;2.12;100.00
20696;BME280;10507;52.754;13.040;2023-02-25T07:55:20;99359.38;;;2.18;100.00
20696;BME280;10507;52.754;13.040;2023-02-25T07:57:48;99371.59;;;2.19;100.00
20696;BME280;10507;52.754;13.040;2023-02-25T08:00:18;99385.44;;;2.24;100.00
20696;BME280;10507;52.754;13.040;2023-02-25T08:02:46;99381.78;;;2.28;100.00
20696;BME280;10507;52.754;13.040;2023-02-25T08:05:13;99384.88;;;2.39;100.00
20696;BME280;10507;52.754;13.040;2023-02-25T08:07:42;99331.22;;;2.20;100.00
20696;BME280;10507;52.754;13.040;2023-02-25T08:10:10;99343.41;;;2.22;100.00
20696;BME280;10507;52.754;13.040;2023-02-25T08:12:38;99313.69;;;2.19;100.00
20696;BME280;10507;52.754;13.040;2023-02-25T08:15:06;99297.06;;;2.17;100.00
20696;BME280;10507;52.754;13.040;2023-02-25T08:17:36;99327.78;;;2.18;100.00
20696;BME280;10507;52.754;13.040;2023-02-25T08:20:04;99338.31;;;2.18;100.00
20696;BME280;10507;52.754;13.040;2023-02-25T08:22:32;99365.31;;;2.23;100.00
20696;BME280;10507;52.754;13.040;2023-02-25T08:25:00;99393.94;;;2.32;100.00
20696;BME280;10507;52.754;13.040;2023-02-25T08:27:28;99322.50;;;2.18;100.00
20696;BME280;10507;52.754;13.040;2023-02-25T08:29:56;99336.41;;;2.21;100.00
20696;BME280;10507;52.754;13.040;2023-02-25T08:32:23;99344.94;;;2.28;100.00
20696;BME280;10507;52.754;13.040;2023-02-25T08:34:54;99317.16;;;2.19;100.00
20696;BME280;10507;52.754;13.040;2023-02-25T08:37:22;99314.59;;;2.18;100.00
20696;BME280;10507;52.754;13.040;2023-02-25T08:39:53;99310.28;;;2.15;100.00
20696;BME280;10507;52.754;13.040;2023-02-25T08:42:21;99322.94;;;2.05;100.00
20696;BME280;10507;52.754;13.040;2023-02-25T08:44:49;99355.34;;;2.07;100.00
20696;BME280;10507;52.754;13.040;2023-02-25T08:47:17;99415.47;;;2.20;100.00
20696;BME280;10507;52.754;13.040;2023-02-25T08:49:45;99665.81;;;5.18;100.00
20696;BME280;10507;52.754;13.040;2023-02-25T08:52:14;99914.41;;;6.08;100.00
20696;BME280;10507;52.754;13.040;2023-02-25T08:54:42;99790.28;;;7.11;100.00
20696;BME280;10507;52.754;13.040;2023-02-25T08:57:10;100162.69;;;8.47;100.00
20696;BME280;10507;52.754;13.040;2023-02-25T08:59:38;99492.75;;;8.84;100.00
20696;BME280;10507;52.754;13.040;2023-02-25T09:02:09;99359.59;;;8.28;100.00
20696;BME280;10507;52.754;13.040;2023-02-25T09:04:42;99321.22;;;8.18;100.00
20696;BME280;10507;52.754;13.040;2023-02-25T09:07:10;98805.06;;;6.79;98.65
20696;BME280;10507;52.754;13.040;2023-02-25T09:09:40;99103.75;;;6.81;100.00
20696;BME280;10507;52.754;13.040;2023-02-25T09:12:09;99653.66;;;8.01;100.00
20696;BME280;10507;52.754;13.040;2023-02-25T09:14:37;99098.88;;;7.61;97.97
20696;BME280;10507;52.754;13.040;2023-02-25T09:17:05;98604.44;;;5.55;97.49
20696;BME280;10507;52.754;13.040;2023-02-25T09:19:33;99156.63;;;7.43;98.79
20696;BME280;10507;52.754;13.040;2023-02-25T09:22:04;99253.28;;;7.55;98.61
20696;BME280;10507;52.754;13.040;2023-02-25T09:24:32;99355.72;;;8.63;97.44
20696;BME280;10507;52.754;13.040;2023-02-25T09:27:02;99375.22;;;9.46;95.64
20696;BME280;10507;52.754;13.040;2023-02-25T09:29:33;99157.91;;;9.68;92.11
20696;BME280;10507;52.754;13.040;2023-02-25T09:32:01;98701.47;;;9.54;88.87
20696;BME280;10507;52.754;13.040;2023-02-25T09:34:29;98534.56;;;8.15;89.58
20696;BME280;10507;52.754;13.040;2023-02-25T09:36:59;98058.13;;;6.31;90.21
20696;BME280;10507;52.754;13.040;2023-02-25T09:39:29;98591.19;;;6.38;92.61
20696;BME280;10507;52.754;13.040;2023-02-25T09:42:04;98937.66;;;7.76;93.31
20696;BME280;10507;52.754;13.040;2023-02-25T09:44:52;97911.47;;;4.24;92.67
20696;BME280;10507;52.754;13.040;2023-02-25T09:47:26;98073.56;;;3.25;95.81
20696;BME280;10507;52.754;13.040;2023-02-25T09:50:01;98373.56;;;2.88;99.00
20696;BME280;10507;52.754;13.040;2023-02-25T09:52:33;98759.22;;;3.06;100.00
20696;BME280;10507;52.754;13.040;2023-02-25T09:55:05;98834.94;;;2.85;100.00
20696;BME280;10507;52.754;13.040;2023-02-25T09:57:37;98925.97;;;2.92;100.00
20696;BME280;10507;52.754;13.040;2023-02-25T10:00:16;98961.66;;;2.81;100.00
20696;BME280;10507;52.754;13.040;2023-02-25T10:02:49;98908.84;;;2.44;100.00
20696;BME280;10507;52.754;13.040;2023-02-25T10:05:23;99041.19;;;2.49;100.00
20696;BME280;10507;52.754;13.040;2023-02-25T10:07:57;99044.88;;;2.45;100.00
20696;BME280;10507;52.754;13.040;2023-02-25T10:10:34;99082.00;;;2.39;100.00
20696;BME280;10507;52.754;13.040;2023-02-25T10:13:18;99158.31;;;2.63;100.00
20696;BME280;10507;52.754;13.040;2023-02-25T10:15:56;99230.34;;;2.84;100.00
20696;BME280;10507;52.754;13.040;2023-02-25T10:18:42;99278.56;;;3.08;100.00
20696;BME280;10507;52.754;13.040;2023-02-25T10:21:22;99209.41;;;3.01;100.00
20696;BME280;10507;52.754;13.040;2023-02-25T10:24:15;99258.41;;;3.27;100.00
20696;BME280;10507;52.754;13.040;2023-02-25T10:26:49;99181.78;;;3.10;100.00
20696;BME280;10507;52.754;13.040;2023-02-25T10:29:24;99257.88;;;3.40;100.00
20696;BME280;10507;52.754;13.040;2023-02-25T10:32:14;99141.44;;;3.08;100.00
20696;BME280;10507;52.754;13.040;2023-02-25T10:34:44;99116.75;;;2.90;100.00
20696;BME280;10507;52.754;13.040;2023-02-25T10:37:18;99120.22;;;2.90;100.00
20696;BME280;10507;52.754;13.040;2023-02-25T10:39:53;99076.88;;;2.77;100.00
20696;BME280;10507;52.754;13.040;2023-02-25T10:42:24;99126.56;;;2.86;100.00
20696;BME280;10507;52.754;13.040;2023-02-25T10:44:54;99148.72;;;3.03;100.00
20696;BME280;10507;52.754;13.040;2023-02-25T10:47:38;99177.50;;;3.07;100.00
20696;BME280;10507;52.754;13.040;2023-02-25T10:50:13;99150.94;;;3.12;100.00
20696;BME280;10507;52.754;13.040;2023-02-25T10:52:58;99100.13;;;3.08;100.00
20696;BME280;10507;52.754;13.040;2023-02-25T10:55:32;99132.00;;;3.23;100.00
20696;BME280;10507;52.754;13.040;2023-02-25T10:58:02;99171.59;;;3.42;100.00
20696;BME280;10507;52.754;13.040;2023-02-25T11:00:33;99120.63;;;3.41;100.00
20696;BME280;10507;52.754;13.040;2023-02-25T11:03:03;98866.81;;;2.98;99.16
20696;BME280;10507;52.754;13.040;2023-02-25T11:05:34;98867.69;;;2.42;100.00
20696;BME280;10507;52.754;13.040;2023-02-25T11:08:04;98840.09;;;1.72;100.00
20696;BME280;10507;52.754;13.040;2023-02-25T11:10:33;98919.25;;;1.65;100.00
20696;BME280;10507;52.754;13.040;2023-02-25T11:13:01;99097.69;;;2.00;100.00
20696;BME280;10507;52.754;13.040;2023-02-25T11:15:34;99110.34;;;2.12;100.00
20696;BME280;10507;52.754;13.040;2023-02-25T11:18:18;99156.78;;;2.35;100.00
20696;BME280;10507;52.754;13.040;2023-02-25T11:20:49;99119.13;;;2.33;100.00
20696;BME280;10507;52.754;13.040;2023-02-25T11:23:21;99127.56;;;2.41;100.00
20696;BME280;10507;52.754;13.040;2023-02-25T11:25:51;99124.69;;;2.47;100.00
20696;BME280;10507;52.754;13.040;2023-02-25T11:28:26;99083.00;;;2.37;100.00
20696;BME280;10507;52.754;13.040;2023-02-25T11:31:04;99114.59;;;2.37;100.00
20696;BME280;10507;52.754;13.040;2023-02-25T11:33:34;99136.41;;;2.40;100.00
20696;BME280;10507;52.754;13.040;2023-02-25T11:36:05;99050.94;;;2.27;100.00
20696;BME280;10507;52.754;13.040;2023-02-25T11:38:34;99075.91;;;2.17;100.00
20696;BME280;10507;52.754;13.040;2023-02-25T11:41:03;99133.53;;;2.24;100.00
20696;BME280;10507;52.754;13.040;2023-02-25T11:43:40;99024.69;;;2.03;100.00
20696;BME280;10507;52.754;13.040;2023-02-25T11:46:15;99054.69;;;1.99;100.00
20696;BME280;10507;52.754;13.040;2023-02-25T11:48:48;99137.41;;;1.94;100.00
20696;BME280;10507;52.754;13.040;2023-02-25T11:51:24;99164.91;;;1.61;100.00
20696;BME280;10507;52.754;13.040;2023-02-25T11:56:42;99170.94;;;1.16;100.00
20696;BME280;10507;52.754;13.040;2023-02-25T11:59:32;99282.06;;;1.21;100.00
20696;BME280;10507;52.754;13.040;2023-02-25T12:02:27;99341.09;;;1.38;100.00
20696;BME280;10507;52.754;13.040;2023-02-25T12:05:24;99401.78;;;1.58;100.00
20696;BME280;10507;52.754;13.040;2023-02-25T12:10:58;99377.94;;;1.88;100.00
20696;BME280;10507;52.754;13.040;2023-02-25T12:13:55;99353.03;;;1.98;100.00
20696;BME280;10507;52.754;13.040;2023-02-25T12:23:28;99357.25;;;2.27;100.00
20696;BME280;10507;52.754;13.040;2023-02-25T12:26:06;99255.53;;;2.25;100.00
20696;BME280;10507;52.754;13.040;2023-02-25T12:28:52;99287.53;;;2.38;100.00
20696;BME280;10507;52.754;13.040;2023-02-25T12:31:52;99151.38;;;2.18;100.00
20696;BME280;10507;52.754;13.040;2023-02-25T12:34:57;99175.59;;;2.26;100.00
20696;BME280;10507;52.754;13.040;2023-02-25T12:37:51;99140.31;;;2.08;100.00
20696;BME280;10507;52.754;13.040;2023-02-25T12:40:40;99024.75;;;1.59;100.00
20696;BME280;10507;52.754;13.040;2023-02-25T12:43:23;99172.94;;;1.58;100.00
20696;BME280;10507;52.754;13.040;2023-02-25T12:46:08;99254.13;;;1.67;100.00
20696;BME280;10507;52.754;13.040;2023-02-25T12:49:25;99265.94;;;1.57;100.00
20696;BME280;10507;52.754;13.040;2023-02-25T12:52:09;99259.06;;;1.53;100.00
20696;BME280;10507;52.754;13.040;2023-02-25T12:55:08;99293.75;;;1.63;100.00
20696;BME280;10507;52.754;13.040;2023-02-25T12:57:45;99280.34;;;1.71;100.00
20696;BME280;10507;52.754;13.040;2023-02-25T13:03:32;99269.66;;;1.99;100.00
20696;BME280;10507;52.754;13.040;2023-02-25T13:06:17;99244.78;;;2.07;100.00
20696;BME280;10507;52.754;13.040;2023-02-25T13:09:09;99177.25;;;2.06;99.96
20696;BME280;10507;52.754;13.040;2023-02-25T13:11:51;99100.13;;;2.04;98.94
20696;BME280;10507;52.754;13.040;2023-02-25T13:14:57;99070.47;;;1.99;98.62
20696;BME280;10507;52.754;13.040;2023-02-25T13:17:44;99046.88;;;1.98;98.41
20696;BME280;10507;52.754;13.040;2023-02-25T13:23:34;99105.50;;;2.23;97.87
20696;BME280;10507;52.754;13.040;2023-02-25T13:26:19;98995.34;;;2.13;96.89
20696;BME280;10507;52.754;13.040;2023-02-25T13:29:02;99033.59;;;2.21;96.79
20696;BME280;10507;52.754;13.040;2023-02-25T13:31:42;99082.94;;;2.38;96.71
20696;BME280;10507;52.754;13.040;2023-02-25T13:34:23;99036.97;;;2.45;96.04
20696;BME280;10507;52.754;13.040;2023-02-25T13:37:21;99069.31;;;2.49;96.08
20696;BME280;10507;52.754;13.040;2023-02-25T13:40:15;99032.09;;;2.57;95.18